Terminal Aerodrome Forecast
Issued by NWS

Home | Current Version | Previous Version | Text Only | Print | Product List | Glossary On
Versions: 1 2 3 4 5 6 7 8 9 10 11 12 13 14 15 16 17 18 19 20 21 22 23 24 25
000
FTUS46 KSGX 230500
TAFSAN
TAF
KSAN 230520Z 2306/2412 VRB04KT P6SM BKN010
     FM231000 VRB03KT P6SM OVC009
     FM231600 VRB05KT P6SM FEW010
     FM231900 30010KT P6SM SKC
     FM240200 VRB04KT P6SM FEW009
     FM240900 VRB03KT P6SM BKN008=

USA.gov is the U.S. government's official web portal to all federal, state and local government web resources and services.